sensor_id;sensor_type;location;lat;lon;timestamp;P1;durP1;ratioP1;P2;durP2;ratioP2
21987;SDS011;11158;53.404;-1.510;2022-08-18T00:01:20;6.65;;;1.83;;
21987;SDS011;11158;53.404;-1.510;2022-08-18T00:03:47;7.45;;;1.88;;
21987;SDS011;11158;53.404;-1.510;2022-08-18T00:06:14;9.20;;;2.08;;
21987;SDS011;11158;53.404;-1.510;2022-08-18T00:08:41;6.25;;;2.30;;
21987;SDS011;11158;53.404;-1.510;2022-08-18T00:11:06;4.22;;;2.13;;
21987;SDS011;11158;53.404;-1.510;2022-08-18T00:13:33;9.80;;;2.60;;
21987;SDS011;11158;53.404;-1.510;2022-08-18T00:15:59;7.50;;;1.88;;
21987;SDS011;11158;53.404;-1.510;2022-08-18T00:18:25;6.82;;;2.55;;
21987;SDS011;11158;53.404;-1.510;2022-08-18T00:20:51;8.43;;;2.60;;
21987;SDS011;11158;53.404;-1.510;2022-08-18T00:23:16;8.98;;;2.88;;
21987;SDS011;11158;53.404;-1.510;2022-08-18T00:25:42;9.68;;;2.97;;
21987;SDS011;11158;53.404;-1.510;2022-08-18T00:28:10;7.28;;;2.63;;
21987;SDS011;11158;53.404;-1.510;2022-08-18T00:30:38;9.23;;;3.05;;
21987;SDS011;11158;53.404;-1.510;2022-08-18T00:33:04;13.32;;;3.20;;
21987;SDS011;11158;53.404;-1.510;2022-08-18T00:35:31;9.15;;;2.78;;
21987;SDS011;11158;53.404;-1.510;2022-08-18T00:38:00;10.40;;;2.50;;
21987;SDS011;11158;53.404;-1.510;2022-08-18T00:40:30;10.57;;;3.00;;
21987;SDS011;11158;53.404;-1.510;2022-08-18T00:43:00;6.13;;;2.83;;
21987;SDS011;11158;53.404;-1.510;2022-08-18T00:45:28;8.15;;;2.40;;
21987;SDS011;11158;53.404;-1.510;2022-08-18T00:48:04;7.88;;;2.53;;
21987;SDS011;11158;53.404;-1.510;2022-08-18T00:50:32;5.85;;;2.58;;
21987;SDS011;11158;53.404;-1.510;2022-08-18T00:53:10;11.23;;;3.17;;
21987;SDS011;11158;53.404;-1.510;2022-08-18T00:55:39;5.10;;;2.17;;
21987;SDS011;11158;53.404;-1.510;2022-08-18T00:58:11;7.40;;;2.60;;
21987;SDS011;11158;53.404;-1.510;2022-08-18T01:00:41;4.60;;;2.25;;
21987;SDS011;11158;53.404;-1.510;2022-08-18T01:03:10;6.82;;;2.40;;
21987;SDS011;11158;53.404;-1.510;2022-08-18T01:05:41;7.50;;;2.30;;
21987;SDS011;11158;53.404;-1.510;2022-08-18T01:08:12;4.18;;;1.77;;
21987;SDS011;11158;53.404;-1.510;2022-08-18T01:10:40;9.65;;;2.95;;
21987;SDS011;11158;53.404;-1.510;2022-08-18T01:13:08;7.00;;;2.00;;
21987;SDS011;11158;53.404;-1.510;2022-08-18T01:15:34;7.93;;;2.00;;
21987;SDS011;11158;53.404;-1.510;2022-08-18T01:18:15;5.43;;;2.05;;
21987;SDS011;11158;53.404;-1.510;2022-08-18T01:21:04;4.68;;;2.03;;
21987;SDS011;11158;53.404;-1.510;2022-08-18T01:24:08;7.25;;;2.10;;
21987;SDS011;11158;53.404;-1.510;2022-08-18T01:26:37;8.10;;;2.13;;
21987;SDS011;11158;53.404;-1.510;2022-08-18T01:29:16;7.35;;;1.80;;
21987;SDS011;11158;53.404;-1.510;2022-08-18T01:31:45;5.25;;;2.35;;
21987;SDS011;11158;53.404;-1.510;2022-08-18T01:34:14;7.35;;;2.78;;
21987;SDS011;11158;53.404;-1.510;2022-08-18T01:36:41;5.00;;;1.88;;
21987;SDS011;11158;53.404;-1.510;2022-08-18T01:39:09;10.20;;;2.40;;
21987;SDS011;11158;53.404;-1.510;2022-08-18T01:41:36;3.97;;;2.15;;
21987;SDS011;11158;53.404;-1.510;2022-08-18T01:44:03;5.70;;;1.60;;
21987;SDS011;11158;53.404;-1.510;2022-08-18T01:46:30;4.90;;;1.90;;
21987;SDS011;11158;53.404;-1.510;2022-08-18T01:48:58;6.57;;;1.90;;
21987;SDS011;11158;53.404;-1.510;2022-08-18T01:51:26;5.45;;;2.13;;
21987;SDS011;11158;53.404;-1.510;2022-08-18T01:53:54;6.85;;;2.10;;
21987;SDS011;11158;53.404;-1.510;2022-08-18T01:56:20;6.47;;;2.08;;
21987;SDS011;11158;53.404;-1.510;2022-08-18T01:58:46;7.95;;;1.85;;
21987;SDS011;11158;53.404;-1.510;2022-08-18T02:01:13;7.50;;;2.10;;
21987;SDS011;11158;53.404;-1.510;2022-08-18T02:03:41;5.70;;;1.80;;
21987;SDS011;11158;53.404;-1.510;2022-08-18T02:06:12;6.20;;;2.13;;
21987;SDS011;11158;53.404;-1.510;2022-08-18T02:08:39;6.57;;;2.13;;
21987;SDS011;11158;53.404;-1.510;2022-08-18T02:11:06;6.22;;;1.70;;
21987;SDS011;11158;53.404;-1.510;2022-08-18T02:13:32;5.82;;;1.85;;
21987;SDS011;11158;53.404;-1.510;2022-08-18T02:15:59;3.08;;;1.80;;
21987;SDS011;11158;53.404;-1.510;2022-08-18T02:18:27;8.40;;;2.65;;
21987;SDS011;11158;53.404;-1.510;2022-08-18T02:20:55;8.27;;;2.03;;
21987;SDS011;11158;53.404;-1.510;2022-08-18T02:23:23;5.63;;;2.22;;
21987;SDS011;11158;53.404;-1.510;2022-08-18T02:25:49;7.55;;;2.38;;
21987;SDS011;11158;53.404;-1.510;2022-08-18T02:28:15;7.82;;;2.65;;
21987;SDS011;11158;53.404;-1.510;2022-08-18T02:30:41;7.00;;;2.70;;
21987;SDS011;11158;53.404;-1.510;2022-08-18T02:33:08;5.53;;;2.60;;
21987;SDS011;11158;53.404;-1.510;2022-08-18T02:35:36;6.50;;;2.83;;
21987;SDS011;11158;53.404;-1.510;2022-08-18T02:38:04;10.73;;;3.05;;
21987;SDS011;11158;53.404;-1.510;2022-08-18T02:40:32;7.65;;;2.72;;
21987;SDS011;11158;53.404;-1.510;2022-08-18T02:43:06;6.95;;;2.92;;
21987;SDS011;11158;53.404;-1.510;2022-08-18T02:45:35;7.90;;;2.88;;
21987;SDS011;11158;53.404;-1.510;2022-08-18T02:48:02;8.48;;;3.13;;
21987;SDS011;11158;53.404;-1.510;2022-08-18T02:50:28;7.32;;;3.15;;
21987;SDS011;11158;53.404;-1.510;2022-08-18T02:52:53;9.73;;;3.08;;
21987;SDS011;11158;53.404;-1.510;2022-08-18T02:55:20;9.32;;;3.20;;
21987;SDS011;11158;53.404;-1.510;2022-08-18T02:57:46;9.77;;;2.95;;
21987;SDS011;11158;53.404;-1.510;2022-08-18T03:00:14;10.32;;;3.22;;
21987;SDS011;11158;53.404;-1.510;2022-08-18T03:02:45;10.25;;;3.53;;
21987;SDS011;11158;53.404;-1.510;2022-08-18T03:05:12;5.97;;;2.77;;
21987;SDS011;11158;53.404;-1.510;2022-08-18T03:07:38;7.55;;;2.72;;
21987;SDS011;11158;53.404;-1.510;2022-08-18T03:10:04;7.10;;;2.80;;
21987;SDS011;11158;53.404;-1.510;2022-08-18T03:12:31;7.43;;;2.70;;
21987;SDS011;11158;53.404;-1.510;2022-08-18T03:14:56;8.13;;;2.83;;
21987;SDS011;11158;53.404;-1.510;2022-08-18T03:17:22;6.10;;;2.42;;
21987;SDS011;11158;53.404;-1.510;2022-08-18T03:19:48;5.70;;;2.30;;
21987;SDS011;11158;53.404;-1.510;2022-08-18T03:22:13;7.72;;;2.45;;
21987;SDS011;11158;53.404;-1.510;2022-08-18T03:24:39;6.53;;;1.88;;
21987;SDS011;11158;53.404;-1.510;2022-08-18T03:27:05;6.53;;;2.55;;
21987;SDS011;11158;53.404;-1.510;2022-08-18T03:29:32;5.10;;;2.30;;
21987;SDS011;11158;53.404;-1.510;2022-08-18T03:32:03;8.05;;;2.40;;
21987;SDS011;11158;53.404;-1.510;2022-08-18T03:34:30;12.48;;;2.80;;
21987;SDS011;11158;53.404;-1.510;2022-08-18T03:36:57;7.22;;;2.47;;
21987;SDS011;11158;53.404;-1.510;2022-08-18T03:39:23;6.45;;;1.90;;
21987;SDS011;11158;53.404;-1.510;2022-08-18T03:41:52;11.75;;;2.80;;
21987;SDS011;11158;53.404;-1.510;2022-08-18T03:44:18;7.93;;;2.75;;
21987;SDS011;11158;53.404;-1.510;2022-08-18T03:46:45;6.82;;;2.35;;
21987;SDS011;11158;53.404;-1.510;2022-08-18T03:49:11;7.68;;;2.58;;
21987;SDS011;11158;53.404;-1.510;2022-08-18T03:51:39;7.15;;;2.08;;
21987;SDS011;11158;53.404;-1.510;2022-08-18T03:54:08;5.45;;;2.10;;
21987;SDS011;11158;53.404;-1.510;2022-08-18T03:56:35;7.10;;;2.25;;
21987;SDS011;11158;53.404;-1.510;2022-08-18T03:59:07;5.85;;;2.20;;
21987;SDS011;11158;53.404;-1.510;2022-08-18T04:01:37;9.18;;;2.28;;
21987;SDS011;11158;53.404;-1.510;2022-08-18T04:04:06;8.70;;;2.47;;
21987;SDS011;11158;53.404;-1.510;2022-08-18T04:06:39;6.45;;;2.42;;
21987;SDS011;11158;53.404;-1.510;2022-08-18T04:09:09;4.10;;;1.63;;
21987;SDS011;11158;53.404;-1.510;2022-08-18T04:11:37;4.95;;;2.22;;
21987;SDS011;11158;53.404;-1.510;2022-08-18T04:14:07;4.45;;;1.75;;
21987;SDS011;11158;53.404;-1.510;2022-08-18T04:16:34;5.47;;;1.88;;
21987;SDS011;11158;53.404;-1.510;2022-08-18T04:19:01;6.40;;;1.85;;
21987;SDS011;11158;53.404;-1.510;2022-08-18T04:21:33;4.28;;;2.25;;
21987;SDS011;11158;53.404;-1.510;2022-08-18T04:24:02;6.35;;;2.25;;
21987;SDS011;11158;53.404;-1.510;2022-08-18T04:26:30;7.32;;;1.92;;
21987;SDS011;11158;53.404;-1.510;2022-08-18T04:28:57;8.68;;;2.42;;
21987;SDS011;11158;53.404;-1.510;2022-08-18T04:31:25;6.15;;;1.77;;
21987;SDS011;11158;53.404;-1.510;2022-08-18T04:33:51;7.82;;;2.00;;
21987;SDS011;11158;53.404;-1.510;2022-08-18T04:36:18;5.72;;;2.40;;
21987;SDS011;11158;53.404;-1.510;2022-08-18T04:38:44;6.22;;;1.80;;
21987;SDS011;11158;53.404;-1.510;2022-08-18T04:41:11;6.45;;;2.00;;
21987;SDS011;11158;53.404;-1.510;2022-08-18T04:43:38;7.60;;;2.28;;
21987;SDS011;11158;53.404;-1.510;2022-08-18T04:46:04;6.00;;;2.03;;
21987;SDS011;11158;53.404;-1.510;2022-08-18T04:51:04;3.88;;;2.05;;
21987;SDS011;11158;53.404;-1.510;2022-08-18T04:53:35;4.18;;;1.95;;
21987;SDS011;11158;53.404;-1.510;2022-08-18T04:56:28;7.07;;;2.13;;
21987;SDS011;11158;53.404;-1.510;2022-08-18T04:58:59;6.25;;;2.05;;
21987;SDS011;11158;53.404;-1.510;2022-08-18T05:01:29;5.70;;;1.90;;
21987;SDS011;11158;53.404;-1.510;2022-08-18T05:03:57;8.45;;;2.40;;
21987;SDS011;11158;53.404;-1.510;2022-08-18T05:06:24;7.50;;;2.63;;
21987;SDS011;11158;53.404;-1.510;2022-08-18T05:08:51;5.60;;;1.88;;
21987;SDS011;11158;53.404;-1.510;2022-08-18T05:11:19;5.35;;;1.80;;
21987;SDS011;11158;53.404;-1.510;2022-08-18T05:13:47;8.68;;;2.33;;
21987;SDS011;11158;53.404;-1.510;2022-08-18T05:16:13;5.68;;;2.00;;
21987;SDS011;11158;53.404;-1.510;2022-08-18T05:18:39;4.60;;;1.90;;
21987;SDS011;11158;53.404;-1.510;2022-08-18T05:21:05;5.00;;;2.15;;
21987;SDS011;11158;53.404;-1.510;2022-08-18T05:23:33;5.70;;;1.75;;
21987;SDS011;11158;53.404;-1.510;2022-08-18T05:26:00;4.20;;;1.35;;
21987;SDS011;11158;53.404;-1.510;2022-08-18T05:28:28;7.70;;;2.03;;
21987;SDS011;11158;53.404;-1.510;2022-08-18T05:30:55;5.97;;;1.65;;
21987;SDS011;11158;53.404;-1.510;2022-08-18T05:33:22;8.63;;;2.35;;
21987;SDS011;11158;53.404;-1.510;2022-08-18T05:35:50;6.47;;;2.38;;
21987;SDS011;11158;53.404;-1.510;2022-08-18T05:41:03;6.63;;;2.00;;
21987;SDS011;11158;53.404;-1.510;2022-08-18T05:43:34;7.55;;;2.05;;
21987;SDS011;11158;53.404;-1.510;2022-08-18T05:46:02;4.63;;;2.25;;
21987;SDS011;11158;53.404;-1.510;2022-08-18T05:48:31;5.97;;;1.90;;
21987;SDS011;11158;53.404;-1.510;2022-08-18T05:50:57;2.95;;;1.88;;
21987;SDS011;11158;53.404;-1.510;2022-08-18T05:53:27;4.72;;;1.90;;
21987;SDS011;11158;53.404;-1.510;2022-08-18T05:56:23;6.10;;;2.35;;
21987;SDS011;11158;53.404;-1.510;2022-08-18T05:59:19;6.65;;;1.92;;
21987;SDS011;11158;53.404;-1.510;2022-08-18T06:01:50;5.00;;;2.17;;
21987;SDS011;11158;53.404;-1.510;2022-08-18T06:04:36;5.85;;;1.88;;
21987;SDS011;11158;53.404;-1.510;2022-08-18T06:07:05;5.72;;;1.92;;
21987;SDS011;11158;53.404;-1.510;2022-08-18T06:09:39;3.50;;;1.60;;
21987;SDS011;11158;53.404;-1.510;2022-08-18T06:12:27;6.25;;;1.55;;
21987;SDS011;11158;53.404;-1.510;2022-08-18T06:15:39;3.92;;;1.80;;
21987;SDS011;11158;53.404;-1.510;2022-08-18T06:28:23;4.15;;;2.08;;
21987;SDS011;11158;53.404;-1.510;2022-08-18T06:33:41;3.92;;;2.15;;
21987;SDS011;11158;53.404;-1.510;2022-08-18T06:36:38;4.25;;;1.88;;
21987;SDS011;11158;53.404;-1.510;2022-08-18T06:41:48;5.53;;;1.70;;
21987;SDS011;11158;53.404;-1.510;2022-08-18T06:44:18;5.22;;;2.20;;
21987;SDS011;11158;53.404;-1.510;2022-08-18T06:49:42;4.65;;;1.85;;
21987;SDS011;11158;53.404;-1.510;2022-08-18T06:54:57;5.22;;;2.45;;
21987;SDS011;11158;53.404;-1.510;2022-08-18T07:00:03;7.57;;;1.88;;
21987;SDS011;11158;53.404;-1.510;2022-08-18T07:02:50;3.28;;;1.70;;
21987;SDS011;11158;53.404;-1.510;2022-08-18T07:05:32;7.15;;;2.00;;
21987;SDS011;11158;53.404;-1.510;2022-08-18T07:10:52;4.68;;;2.05;;
21987;SDS011;11158;53.404;-1.510;2022-08-18T07:13:24;6.28;;;2.00;;
21987;SDS011;11158;53.404;-1.510;2022-08-18T07:18:37;5.95;;;1.90;;
21987;SDS011;11158;53.404;-1.510;2022-08-18T07:21:02;4.88;;;1.70;;
21987;SDS011;11158;53.404;-1.510;2022-08-18T07:23:33;3.72;;;1.95;;
21987;SDS011;11158;53.404;-1.510;2022-08-18T07:26:09;8.48;;;1.98;;
21987;SDS011;11158;53.404;-1.510;2022-08-18T07:28:56;6.97;;;1.80;;
21987;SDS011;11158;53.404;-1.510;2022-08-18T07:31:42;5.18;;;1.88;;
21987;SDS011;11158;53.404;-1.510;2022-08-18T07:34:16;8.15;;;2.60;;
21987;SDS011;11158;53.404;-1.510;2022-08-18T07:36:49;7.60;;;2.45;;
21987;SDS011;11158;53.404;-1.510;2022-08-18T07:42:00;12.07;;;4.55;;
21987;SDS011;11158;53.404;-1.510;2022-08-18T07:44:44;14.75;;;4.10;;
21987;SDS011;11158;53.404;-1.510;2022-08-18T07:49:47;8.05;;;3.67;;
21987;SDS011;11158;53.404;-1.510;2022-08-18T07:52:21;11.05;;;3.90;;
21987;SDS011;11158;53.404;-1.510;2022-08-18T07:58:10;23.50;;;10.68;;
21987;SDS011;11158;53.404;-1.510;2022-08-18T08:08:39;9.77;;;3.55;;
21987;SDS011;11158;53.404;-1.510;2022-08-18T08:11:17;12.43;;;4.15;;
21987;SDS011;11158;53.404;-1.510;2022-08-18T08:16:59;8.00;;;3.38;;
21987;SDS011;11158;53.404;-1.510;2022-08-18T08:19:47;8.77;;;3.72;;
21987;SDS011;11158;53.404;-1.510;2022-08-18T08:34:08;11.63;;;3.80;;
21987;SDS011;11158;53.404;-1.510;2022-08-18T08:36:40;8.82;;;3.67;;
21987;SDS011;11158;53.404;-1.510;2022-08-18T08:39:11;11.52;;;3.72;;
21987;SDS011;11158;53.404;-1.510;2022-08-18T08:44:38;9.80;;;3.47;;
21987;SDS011;11158;53.404;-1.510;2022-08-18T08:49:56;9.68;;;3.55;;
21987;SDS011;11158;53.404;-1.510;2022-08-18T08:52:44;12.93;;;4.35;;
21987;SDS011;11158;53.404;-1.510;2022-08-18T08:55:22;7.80;;;4.15;;
21987;SDS011;11158;53.404;-1.510;2022-08-18T09:00:22;5.70;;;3.43;;
21987;SDS011;11158;53.404;-1.510;2022-08-18T09:03:01;6.15;;;3.95;;
21987;SDS011;11158;53.404;-1.510;2022-08-18T09:06:00;6.97;;;3.63;;
21987;SDS011;11158;53.404;-1.510;2022-08-18T09:08:40;6.28;;;4.07;;
21987;SDS011;11158;53.404;-1.510;2022-08-18T09:20:09;5.25;;;3.20;;
21987;SDS011;11158;53.404;-1.510;2022-08-18T09:25:28;5.35;;;3.08;;
21987;SDS011;11158;53.404;-1.510;2022-08-18T09:28:08;4.82;;;2.50;;
21987;SDS011;11158;53.404;-1.510;2022-08-18T09:35:52;2.83;;;2.33;;
21987;SDS011;11158;53.404;-1.510;2022-08-18T09:38:30;5.10;;;2.70;;
21987;SDS011;11158;53.404;-1.510;2022-08-18T09:41:22;3.08;;;2.47;;
21987;SDS011;11158;53.404;-1.510;2022-08-18T09:49:50;3.95;;;2.30;;
21987;SDS011;11158;53.404;-1.510;2022-08-18T09:54:50;6.15;;;3.10;;
21987;SDS011;11158;53.404;-1.510;2022-08-18T09:57:27;3.67;;;2.67;;
21987;SDS011;11158;53.404;-1.510;2022-08-18T09:59:58;3.25;;;2.58;;
21987;SDS011;11158;53.404;-1.510;2022-08-18T10:07:42;4.57;;;3.55;;
21987;SDS011;11158;53.404;-1.510;2022-08-18T10:10:20;5.97;;;3.22;;
21987;SDS011;11158;53.404;-1.510;2022-08-18T10:12:55;4.30;;;3.10;;
21987;SDS011;11158;53.404;-1.510;2022-08-18T10:15:35;5.03;;;3.65;;
21987;SDS011;11158;53.404;-1.510;2022-08-18T10:21:25;4.72;;;3.30;;
21987;SDS011;11158;53.404;-1.510;2022-08-18T10:37:20;5.47;;;4.10;;
21987;SDS011;11158;53.404;-1.510;2022-08-18T10:39:49;8.00;;;4.25;;
21987;SDS011;11158;53.404;-1.510;2022-08-18T10:42:44;7.93;;;4.80;;
21987;SDS011;11158;53.404;-1.510;2022-08-18T10:45:36;6.43;;;4.10;;
21987;SDS011;11158;53.404;-1.510;2022-08-18T10:56:42;5.90;;;4.20;;
21987;SDS011;11158;53.404;-1.510;2022-08-18T11:04:29;5.15;;;3.92;;
21987;SDS011;11158;53.404;-1.510;2022-08-18T11:09:51;5.32;;;3.45;;
21987;SDS011;11158;53.404;-1.510;2022-08-18T11:17:59;5.22;;;4.70;;
21987;SDS011;11158;53.404;-1.510;2022-08-18T11:20:38;5.50;;;4.70;;
21987;SDS011;11158;53.404;-1.510;2022-08-18T11:23:10;6.90;;;4.40;;
21987;SDS011;11158;53.404;-1.510;2022-08-18T11:25:39;6.10;;;4.55;;
21987;SDS011;11158;53.404;-1.510;2022-08-18T11:28:20;6.95;;;4.80;;
21987;SDS011;11158;53.404;-1.510;2022-08-18T11:30:49;7.93;;;5.40;;
21987;SDS011;11158;53.404;-1.510;2022-08-18T11:33:19;6.93;;;4.20;;
21987;SDS011;11158;53.404;-1.510;2022-08-18T11:35:56;10.43;;;4.53;;
21987;SDS011;11158;53.404;-1.510;2022-08-18T11:38:24;5.85;;;4.20;;
21987;SDS011;11158;53.404;-1.510;2022-08-18T11:40:53;5.40;;;3.88;;
21987;SDS011;11158;53.404;-1.510;2022-08-18T11:43:40;5.05;;;3.42;;
21987;SDS011;11158;53.404;-1.510;2022-08-18T11:46:27;5.30;;;3.50;;
21987;SDS011;11158;53.404;-1.510;2022-08-18T11:49:15;6.35;;;3.60;;
21987;SDS011;11158;53.404;-1.510;2022-08-18T11:52:00;5.75;;;3.78;;
21987;SDS011;11158;53.404;-1.510;2022-08-18T11:54:49;4.60;;;3.78;;
21987;SDS011;11158;53.404;-1.510;2022-08-18T11:57:30;4.65;;;3.03;;
21987;SDS011;11158;53.404;-1.510;2022-08-18T12:03:27;9.32;;;2.90;;
21987;SDS011;11158;53.404;-1.510;2022-08-18T12:05:57;3.63;;;2.58;;
21987;SDS011;11158;53.404;-1.510;2022-08-18T12:08:35;3.53;;;2.70;;
21987;SDS011;11158;53.404;-1.510;2022-08-18T12:11:14;5.10;;;2.97;;
21987;SDS011;11158;53.404;-1.510;2022-08-18T12:13:43;3.95;;;2.63;;
21987;SDS011;11158;53.404;-1.510;2022-08-18T12:16:44;4.30;;;2.80;;
21987;SDS011;11158;53.404;-1.510;2022-08-18T12:19:05;4.80;;;2.60;;
21987;SDS011;11158;53.404;-1.510;2022-08-18T12:21:37;4.70;;;2.58;;
21987;SDS011;11158;53.404;-1.510;2022-08-18T12:24:05;3.20;;;2.53;;
21987;SDS011;11158;53.404;-1.510;2022-08-18T12:26:46;4.93;;;2.85;;
21987;SDS011;11158;53.404;-1.510;2022-08-18T12:29:11;4.32;;;2.83;;
21987;SDS011;11158;53.404;-1.510;2022-08-18T12:31:38;5.28;;;2.83;;
21987;SDS011;11158;53.404;-1.510;2022-08-18T12:34:04;4.80;;;3.10;;
21987;SDS011;11158;53.404;-1.510;2022-08-18T12:36:30;4.15;;;3.08;;
21987;SDS011;11158;53.404;-1.510;2022-08-18T12:38:56;4.10;;;2.90;;
21987;SDS011;11158;53.404;-1.510;2022-08-18T12:41:22;4.75;;;2.60;;
21987;SDS011;11158;53.404;-1.510;2022-08-18T12:43:48;4.93;;;3.30;;
21987;SDS011;11158;53.404;-1.510;2022-08-18T12:46:14;3.88;;;2.60;;
21987;SDS011;11158;53.404;-1.510;2022-08-18T12:48:40;7.28;;;3.50;;
21987;SDS011;11158;53.404;-1.510;2022-08-18T12:51:06;3.85;;;3.20;;
21987;SDS011;11158;53.404;-1.510;2022-08-18T12:53:32;4.13;;;3.00;;
21987;SDS011;11158;53.404;-1.510;2022-08-18T12:55:59;5.45;;;3.40;;
21987;SDS011;11158;53.404;-1.510;2022-08-18T12:58:26;6.28;;;3.20;;
21987;SDS011;11158;53.404;-1.510;2022-08-18T13:00:52;5.38;;;3.80;;
21987;SDS011;11158;53.404;-1.510;2022-08-18T13:03:19;7.55;;;3.10;;
21987;SDS011;11158;53.404;-1.510;2022-08-18T13:05:45;5.38;;;3.65;;
21987;SDS011;11158;53.404;-1.510;2022-08-18T13:08:20;4.93;;;4.15;;
21987;SDS011;11158;53.404;-1.510;2022-08-18T13:10:47;6.40;;;3.70;;
21987;SDS011;11158;53.404;-1.510;2022-08-18T13:13:14;5.38;;;3.92;;
21987;SDS011;11158;53.404;-1.510;2022-08-18T13:15:41;4.63;;;4.18;;
21987;SDS011;11158;53.404;-1.510;2022-08-18T13:18:07;6.00;;;4.10;;
21987;SDS011;11158;53.404;-1.510;2022-08-18T13:20:33;4.55;;;4.03;;
21987;SDS011;11158;53.404;-1.510;2022-08-18T13:23:00;4.15;;;3.80;;
21987;SDS011;11158;53.404;-1.510;2022-08-18T13:25:26;5.55;;;4.03;;
21987;SDS011;11158;53.404;-1.510;2022-08-18T13:27:52;5.65;;;3.58;;
21987;SDS011;11158;53.404;-1.510;2022-08-18T13:30:19;4.07;;;3.45;;
21987;SDS011;11158;53.404;-1.510;2022-08-18T13:32:45;7.78;;;4.18;;
21987;SDS011;11158;53.404;-1.510;2022-08-18T13:35:11;4.20;;;3.80;;
21987;SDS011;11158;53.404;-1.510;2022-08-18T13:37:37;5.47;;;4.53;;
21987;SDS011;11158;53.404;-1.510;2022-08-18T13:40:03;8.15;;;5.22;;
21987;SDS011;11158;53.404;-1.510;2022-08-18T13:42:29;6.95;;;4.57;;
21987;SDS011;11158;53.404;-1.510;2022-08-18T13:44:58;7.70;;;5.25;;
21987;SDS011;11158;53.404;-1.510;2022-08-18T13:47:25;5.82;;;4.82;;
21987;SDS011;11158;53.404;-1.510;2022-08-18T13:49:56;8.93;;;5.00;;
21987;SDS011;11158;53.404;-1.510;2022-08-18T13:52:23;9.15;;;5.07;;
21987;SDS011;11158;53.404;-1.510;2022-08-18T13:54:50;5.57;;;5.00;;
21987;SDS011;11158;53.404;-1.510;2022-08-18T13:57:17;5.15;;;4.32;;
21987;SDS011;11158;53.404;-1.510;2022-08-18T13:59:43;6.43;;;3.38;;
21987;SDS011;11158;53.404;-1.510;2022-08-18T14:02:09;4.00;;;3.60;;
21987;SDS011;11158;53.404;-1.510;2022-08-18T14:04:36;5.70;;;3.95;;
21987;SDS011;11158;53.404;-1.510;2022-08-18T14:07:04;5.68;;;3.88;;
21987;SDS011;11158;53.404;-1.510;2022-08-18T14:09:30;4.90;;;4.40;;
21987;SDS011;11158;53.404;-1.510;2022-08-18T14:11:56;7.63;;;5.43;;
21987;SDS011;11158;53.404;-1.510;2022-08-18T14:14:23;5.68;;;5.05;;
21987;SDS011;11158;53.404;-1.510;2022-08-18T14:16:49;6.05;;;5.22;;
21987;SDS011;11158;53.404;-1.510;2022-08-18T14:19:14;6.38;;;5.03;;
21987;SDS011;11158;53.404;-1.510;2022-08-18T14:21:58;5.53;;;5.00;;
21987;SDS011;11158;53.404;-1.510;2022-08-18T14:24:43;6.35;;;5.65;;
21987;SDS011;11158;53.404;-1.510;2022-08-18T14:27:42;10.57;;;5.28;;
21987;SDS011;11158;53.404;-1.510;2022-08-18T14:30:09;6.30;;;5.55;;
21987;SDS011;11158;53.404;-1.510;2022-08-18T14:32:38;6.45;;;5.70;;
21987;SDS011;11158;53.404;-1.510;2022-08-18T14:35:04;7.32;;;6.03;;
21987;SDS011;11158;53.404;-1.510;2022-08-18T14:37:32;6.18;;;5.45;;
21987;SDS011;11158;53.404;-1.510;2022-08-18T14:39:58;5.88;;;5.10;;
21987;SDS011;11158;53.404;-1.510;2022-08-18T14:42:27;9.23;;;5.80;;
21987;SDS011;11158;53.404;-1.510;2022-08-18T14:44:52;7.07;;;4.93;;
21987;SDS011;11158;53.404;-1.510;2022-08-18T14:47:20;7.43;;;5.28;;
21987;SDS011;11158;53.404;-1.510;2022-08-18T14:49:46;7.90;;;4.72;;
21987;SDS011;11158;53.404;-1.510;2022-08-18T14:52:11;7.13;;;5.03;;
21987;SDS011;11158;53.404;-1.510;2022-08-18T14:54:37;5.90;;;4.45;;
21987;SDS011;11158;53.404;-1.510;2022-08-18T14:57:04;8.88;;;4.30;;
21987;SDS011;11158;53.404;-1.510;2022-08-18T14:59:30;6.60;;;5.07;;
21987;SDS011;11158;53.404;-1.510;2022-08-18T15:01:57;6.32;;;5.00;;
21987;SDS011;11158;53.404;-1.510;2022-08-18T15:04:24;7.28;;;5.00;;
21987;SDS011;11158;53.404;-1.510;2022-08-18T15:06:52;5.78;;;4.68;;
21987;SDS011;11158;53.404;-1.510;2022-08-18T15:09:18;5.13;;;4.18;;
21987;SDS011;11158;53.404;-1.510;2022-08-18T15:11:44;8.35;;;4.13;;
21987;SDS011;11158;53.404;-1.510;2022-08-18T15:14:10;6.47;;;4.10;;
21987;SDS011;11158;53.404;-1.510;2022-08-18T15:16:35;5.55;;;3.80;;
21987;SDS011;11158;53.404;-1.510;2022-08-18T15:19:02;5.07;;;4.07;;
21987;SDS011;11158;53.404;-1.510;2022-08-18T15:21:28;4.15;;;3.60;;
21987;SDS011;11158;53.404;-1.510;2022-08-18T15:24:13;5.55;;;4.53;;
21987;SDS011;11158;53.404;-1.510;2022-08-18T15:26:58;6.82;;;4.35;;
21987;SDS011;11158;53.404;-1.510;2022-08-18T15:29:25;7.35;;;4.65;;
21987;SDS011;11158;53.404;-1.510;2022-08-18T15:31:52;5.45;;;4.35;;
21987;SDS011;11158;53.404;-1.510;2022-08-18T15:34:18;6.38;;;4.20;;
21987;SDS011;11158;53.404;-1.510;2022-08-18T15:36:43;6.65;;;4.60;;
21987;SDS011;11158;53.404;-1.510;2022-08-18T15:39:11;4.45;;;3.78;;
21987;SDS011;11158;53.404;-1.510;2022-08-18T15:41:39;5.63;;;4.10;;
21987;SDS011;11158;53.404;-1.510;2022-08-18T15:44:08;5.80;;;3.15;;
21987;SDS011;11158;53.404;-1.510;2022-08-18T15:46:34;3.17;;;2.85;;
21987;SDS011;11158;53.404;-1.510;2022-08-18T15:49:02;4.85;;;2.80;;
21987;SDS011;11158;53.404;-1.510;2022-08-18T15:51:33;2.47;;;2.28;;
21987;SDS011;11158;53.404;-1.510;2022-08-18T15:54:00;3.00;;;2.70;;
21987;SDS011;11158;53.404;-1.510;2022-08-18T15:56:27;4.50;;;2.45;;
21987;SDS011;11158;53.404;-1.510;2022-08-18T15:58:53;3.40;;;2.50;;
21987;SDS011;11158;53.404;-1.510;2022-08-18T16:01:20;2.65;;;2.15;;
21987;SDS011;11158;53.404;-1.510;2022-08-18T16:03:48;3.00;;;2.67;;
21987;SDS011;11158;53.404;-1.510;2022-08-18T16:06:19;2.72;;;2.53;;
21987;SDS011;11158;53.404;-1.510;2022-08-18T16:08:48;3.85;;;2.78;;
21987;SDS011;11158;53.404;-1.510;2022-08-18T16:11:16;4.95;;;3.20;;
21987;SDS011;11158;53.404;-1.510;2022-08-18T16:13:43;4.30;;;3.15;;
21987;SDS011;11158;53.404;-1.510;2022-08-18T16:16:10;4.28;;;2.90;;
21987;SDS011;11158;53.404;-1.510;2022-08-18T16:18:40;4.35;;;3.10;;
21987;SDS011;11158;53.404;-1.510;2022-08-18T16:21:07;3.55;;;2.50;;
21987;SDS011;11158;53.404;-1.510;2022-08-18T16:23:38;4.10;;;2.83;;
21987;SDS011;11158;53.404;-1.510;2022-08-18T16:28:33;6.13;;;3.20;;
21987;SDS011;11158;53.404;-1.510;2022-08-18T16:30:59;6.65;;;3.05;;
21987;SDS011;11158;53.404;-1.510;2022-08-18T16:33:25;3.83;;;3.30;;
21987;SDS011;11158;53.404;-1.510;2022-08-18T16:35:51;3.33;;;3.05;;
21987;SDS011;11158;53.404;-1.510;2022-08-18T16:38:17;3.45;;;3.10;;
21987;SDS011;11158;53.404;-1.510;2022-08-18T16:40:44;3.83;;;3.40;;
21987;SDS011;11158;53.404;-1.510;2022-08-18T16:43:10;5.47;;;3.53;;
21987;SDS011;11158;53.404;-1.510;2022-08-18T16:45:37;3.58;;;3.28;;
21987;SDS011;11158;53.404;-1.510;2022-08-18T16:48:06;6.95;;;3.70;;
21987;SDS011;11158;53.404;-1.510;2022-08-18T16:50:34;3.88;;;3.50;;
21987;SDS011;11158;53.404;-1.510;2022-08-18T16:53:02;4.10;;;3.70;;
21987;SDS011;11158;53.404;-1.510;2022-08-18T16:55:29;6.35;;;4.50;;
21987;SDS011;11158;53.404;-1.510;2022-08-18T16:57:55;6.28;;;5.13;;
21987;SDS011;11158;53.404;-1.510;2022-08-18T17:00:39;7.50;;;4.63;;
21987;SDS011;11158;53.404;-1.510;2022-08-18T17:03:24;7.85;;;5.40;;
21987;SDS011;11158;53.404;-1.510;2022-08-18T17:06:10;7.30;;;5.45;;
21987;SDS011;11158;53.404;-1.510;2022-08-18T17:11:11;5.95;;;5.32;;
21987;SDS011;11158;53.404;-1.510;2022-08-18T17:13:39;7.40;;;5.68;;
21987;SDS011;11158;53.404;-1.510;2022-08-18T17:16:06;5.75;;;5.25;;
21987;SDS011;11158;53.404;-1.510;2022-08-18T17:18:34;6.25;;;5.15;;
21987;SDS011;11158;53.404;-1.510;2022-08-18T17:21:04;5.75;;;4.80;;
21987;SDS011;11158;53.404;-1.510;2022-08-18T17:23:32;7.85;;;5.38;;
21987;SDS011;11158;53.404;-1.510;2022-08-18T17:25:58;7.28;;;3.97;;